map of ABC home
Great Circle Mapper logo
ABC - Airport
Location
City:  Albacete, Castille-La Mancha, Spain
Name:Albacete Airport
Old (Alt.):Los Llanos AB
ICAO / IATA:LEAB / ABC

Details
Type:Airport (Aerodrome, Airfield)
Use:Public/Civil, Military
Latitude:3856'55"N (38.948528)
Longitude:151'49"W (-1.863516)
Datum:WGS 1984
Elevation:2302 ft (702 m)
Runways:1
Longest:8858 × 197 ft (2700 × 60 m), paved

Time
Time Zone:UTC+1 (DST+2)
Local Time:

Weather
METAR:LEAB 261900Z 18009KT CAVOK 29/12 Q1016 NOSIG

Related Locations
Nearby:
Farthest:GIS: 12434 mi / 20011 km
Gisborne, NZ

Find:

   beyond  
but within

Other Information
Maps:
NOTAMs:
Links:
Sources:

  
flag of Spain
flag of Castille-La Mancha
  

Sectional Chart

Flight Planning
at skyvector.com

Satellite Image

Google Maps Satellite View

 

Copyright © 2004-2014 Karl L. Swartz. All rights reserved.
The Great Circle Mapper name and logo are trademarks of the Great Circle Mapper.
All other trademarks mentioned herein belong to their respective owners.
Please see credits for attibutions and further copyright information.

  Follow gcmap on Facebook Follow gcmap on Twitter

hCard Microformat

Geo Microformat